createdAt,value
2018-04-26T00:02:25.929Z,6.43
2018-04-26T00:04:54.355Z,6.83
2018-04-26T00:07:21.975Z,6.90
2018-04-26T00:09:55.253Z,6.70
2018-04-26T00:12:22.897Z,6.30
2018-04-26T00:14:50.506Z,7.17
2018-04-26T00:17:18.146Z,6.80
2018-04-26T00:19:46.587Z,6.63
2018-04-26T00:22:14.234Z,6.70
2018-04-26T00:24:41.891Z,6.30
2018-04-26T00:27:09.534Z,7.57
2018-04-26T00:29:37.174Z,6.87
2018-04-26T00:32:05.557Z,7.43
2018-04-26T00:34:33.969Z,7.83
2018-04-26T00:37:01.615Z,8.13
2018-04-26T00:39:29.291Z,7.17
2018-04-26T00:41:56.900Z,7.47
2018-04-26T00:44:24.554Z,7.63
2018-04-26T00:46:52.197Z,6.90
2018-04-26T00:49:19.798Z,7.20
2018-04-26T00:52:00.156Z,7.20
2018-04-26T00:54:28.551Z,7.13
2018-04-26T00:56:56.200Z,7.70
2018-04-26T00:59:24.578Z,8.07
2018-04-26T01:01:53.135Z,7.30
2018-04-26T01:04:20.769Z,7.87
2018-04-26T01:06:49.229Z,7.67
2018-04-26T01:09:16.856Z,8.17
2018-04-26T01:11:44.457Z,8.00
2018-04-26T01:14:12.117Z,8.43
2018-04-26T01:16:39.810Z,7.97
2018-04-26T01:19:07.418Z,8.23
2018-04-26T01:21:39.222Z,8.07
2018-04-26T01:24:07.637Z,7.50
2018-04-26T01:26:35.287Z,6.73
2018-04-26T01:29:02.898Z,7.70
2018-04-26T01:31:30.550Z,7.27
2018-04-26T01:33:58.201Z,6.70
2018-04-26T01:36:38.438Z,7.03
2018-04-26T01:39:06.862Z,7.33
2018-04-26T01:41:34.474Z,6.83
2018-04-26T01:44:02.167Z,7.77
2018-04-26T01:46:30.534Z,7.67
2018-04-26T01:48:58.960Z,8.13
2018-04-26T01:51:26.578Z,7.97
2018-04-26T01:53:54.462Z,7.50
2018-04-26T01:56:22.106Z,7.47
2018-04-26T01:58:50.481Z,7.20
2018-04-26T02:01:18.894Z,8.00
2018-04-26T02:03:46.502Z,7.57
2018-04-26T02:06:14.154Z,7.20
2018-04-26T02:08:41.777Z,7.13
2018-04-26T02:11:09.438Z,7.40
2018-04-26T02:13:37.048Z,7.03
2018-04-26T02:16:04.673Z,7.17
2018-04-26T02:18:32.335Z,7.63
2018-04-26T02:20:59.981Z,7.90
2018-04-26T02:23:27.646Z,7.53
2018-04-26T02:25:55.292Z,7.40
2018-04-26T02:28:22.889Z,7.17
2018-04-26T02:30:50.525Z,6.77
2018-04-26T02:33:18.193Z,7.20
2018-04-26T02:35:45.803Z,7.63
2018-04-26T02:38:14.232Z,7.37
2018-04-26T02:40:41.914Z,7.70
2018-04-26T02:43:09.565Z,7.30
2018-04-26T02:45:37.170Z,6.93
2018-04-26T02:48:05.607Z,7.37
2018-04-26T02:50:33.213Z,7.50
2018-04-26T02:53:01.586Z,7.07
2018-04-26T02:55:30.020Z,6.33
2018-04-26T02:57:57.642Z,6.80
2018-04-26T03:00:26.024Z,6.80
2018-04-26T03:02:54.471Z,7.07
2018-04-26T03:05:22.118Z,6.70
2018-04-26T03:07:49.767Z,6.70
2018-04-26T03:10:17.415Z,7.53
2018-04-26T03:12:45.127Z,7.53
2018-04-26T03:15:12.755Z,7.23
2018-04-26T03:17:40.388Z,7.30
2018-04-26T03:20:07.990Z,6.97
2018-04-26T03:22:35.645Z,7.23
2018-04-26T03:25:03.298Z,7.07
2018-04-26T03:27:30.937Z,7.10
2018-04-26T03:29:58.564Z,7.37
2018-04-26T03:32:26.972Z,7.37
2018-04-26T03:34:54.574Z,7.50
2018-04-26T03:37:22.256Z,7.17
2018-04-26T03:39:49.853Z,7.03
2018-04-26T03:42:17.485Z,7.00
2018-04-26T03:44:45.858Z,7.47
2018-04-26T03:47:13.506Z,7.60
2018-04-26T03:49:41.149Z,7.83
2018-04-26T03:52:08.807Z,7.73
2018-04-26T03:54:36.431Z,7.30
2018-04-26T03:57:04.085Z,7.20
2018-04-26T03:59:43.420Z,7.50
2018-04-26T04:02:23.694Z,8.93
2018-04-26T04:05:03.234Z,7.70
2018-04-26T04:07:30.887Z,7.20
2018-04-26T04:09:58.550Z,7.37
2018-04-26T04:12:26.183Z,7.47
2018-04-26T04:14:53.838Z,7.50
2018-04-26T04:17:21.511Z,7.93
2018-04-26T04:19:49.927Z,7.53
2018-04-26T04:22:17.615Z,7.50
2018-04-26T04:24:45.255Z,7.80
2018-04-26T04:27:12.906Z,7.40
2018-04-26T04:29:40.519Z,7.83
2018-04-26T04:32:08.397Z,7.10
2018-04-26T04:34:36.019Z,7.53
2018-04-26T04:37:03.681Z,7.57
2018-04-26T04:39:31.302Z,7.73
2018-04-26T04:41:59.739Z,8.17
2018-04-26T04:44:27.350Z,8.33
2018-04-26T04:46:55.007Z,8.50
2018-04-26T04:49:22.618Z,7.97
2018-04-26T04:51:50.270Z,8.03
2018-04-26T04:54:17.932Z,8.17
2018-04-26T04:56:45.542Z,7.97
2018-04-26T04:59:13.968Z,8.53
2018-04-26T05:01:41.634Z,7.53
2018-04-26T05:04:09.252Z,8.53
2018-04-26T05:06:37.676Z,8.10
2018-04-26T05:09:05.315Z,8.03
2018-04-26T05:11:32.970Z,8.27
2018-04-26T05:14:00.631Z,7.97
2018-04-26T05:16:28.286Z,8.27
2018-04-26T05:18:55.913Z,8.20
2018-04-26T05:21:23.537Z,8.13
2018-04-26T05:23:51.173Z,8.73
2018-04-26T05:26:18.795Z,7.90
2018-04-26T05:28:46.893Z,8.10
2018-04-26T05:31:15.269Z,8.40
2018-04-26T05:33:43.724Z,7.37
2018-04-26T05:36:11.326Z,7.73
2018-04-26T05:38:38.993Z,8.27
2018-04-26T05:41:06.615Z,8.20
2018-04-26T05:43:34.226Z,8.60
2018-04-26T05:46:01.923Z,9.33
2018-04-26T05:48:29.534Z,9.17
2018-04-26T05:50:58.079Z,9.20
2018-04-26T05:53:25.703Z,9.30
2018-04-26T05:55:53.386Z,8.60
2018-04-26T05:58:21.020Z,8.37
2018-04-26T06:00:48.671Z,8.43
2018-04-26T06:03:16.294Z,8.77
2018-04-26T06:05:44.722Z,8.60
2018-04-26T06:08:12.395Z,9.10
2018-04-26T06:10:40.007Z,8.87
2018-04-26T06:13:08.437Z,9.47
2018-04-26T06:15:36.095Z,9.90
2018-04-26T06:18:03.767Z,9.77
2018-04-26T06:20:31.422Z,9.27
2018-04-26T06:22:59.038Z,8.00
2018-04-26T06:25:26.702Z,9.53
2018-04-26T06:27:54.360Z,9.07
2018-04-26T06:30:22.027Z,10.90
2018-04-26T06:32:49.718Z,10.97
2018-04-26T06:35:17.329Z,9.47
2018-04-26T06:37:45.807Z,9.53
2018-04-26T06:40:14.194Z,9.90
2018-04-26T06:42:42.629Z,9.93
2018-04-26T06:45:10.246Z,10.03
2018-04-26T06:47:38.672Z,10.20
2018-04-26T06:50:06.299Z,10.43
2018-04-26T06:52:33.947Z,9.83
2018-04-26T06:55:02.385Z,9.77
2018-04-26T06:57:30.001Z,9.37
2018-04-26T06:59:57.671Z,9.43
2018-04-26T07:02:25.285Z,9.30
2018-04-26T07:04:53.837Z,9.13
2018-04-26T07:07:22.259Z,9.27
2018-04-26T07:09:50.638Z,8.73
2018-04-26T07:12:19.066Z,9.37
2018-04-26T07:14:46.718Z,9.70
2018-04-26T07:17:14.379Z,9.47
2018-04-26T07:19:41.999Z,9.80
2018-04-26T07:22:09.687Z,10.70
2018-04-26T07:24:37.343Z,9.37
2018-04-26T07:27:05.014Z,9.90
2018-04-26T07:29:32.634Z,9.67
2018-04-26T07:32:00.323Z,9.83
2018-04-26T07:34:28.741Z,10.47
2018-04-26T07:36:56.354Z,9.27
2018-04-26T07:39:24.791Z,9.00
2018-04-26T07:41:52.411Z,9.30
2018-04-26T07:44:20.067Z,9.37
2018-04-26T07:46:48.507Z,8.37
2018-04-26T07:49:16.126Z,8.77
2018-04-26T07:51:44.020Z,9.27
2018-04-26T07:54:11.714Z,8.93
2018-04-26T07:56:39.367Z,9.13
2018-04-26T07:59:07.015Z,6.70
2018-04-26T08:01:34.688Z,5.00
2018-04-26T08:04:02.327Z,5.53
2018-04-26T08:06:30.021Z,5.43
2018-04-26T08:08:57.629Z,5.23
2018-04-26T08:11:25.322Z,5.10
2018-04-26T08:13:52.983Z,4.90
2018-04-26T08:16:21.442Z,5.27
2018-04-26T08:18:49.134Z,5.30
2018-04-26T08:21:16.750Z,4.80
2018-04-26T08:23:44.415Z,4.87
2018-04-26T08:26:12.954Z,4.90
2018-04-26T08:28:40.670Z,5.13
2018-04-26T08:31:08.330Z,4.50
2018-04-26T08:33:35.953Z,5.30
2018-04-26T08:36:04.369Z,4.97
2018-04-26T08:38:32.067Z,4.67
2018-04-26T08:41:00.713Z,4.57
2018-04-26T08:43:28.457Z,4.63
2018-04-26T08:45:56.893Z,4.47
2018-04-26T08:48:24.568Z,4.70
2018-04-26T08:50:52.238Z,4.47
2018-04-26T08:53:19.877Z,4.13
2018-04-26T08:55:48.306Z,4.53
2018-04-26T08:58:15.926Z,4.73
2018-04-26T09:00:44.348Z,5.00
2018-04-26T09:03:12.006Z,5.37
2018-04-26T09:05:40.413Z,5.70
2018-04-26T09:08:08.072Z,5.73
2018-04-26T09:10:35.734Z,5.30
2018-04-26T09:13:03.354Z,5.33
2018-04-26T09:15:31.827Z,4.60
2018-04-26T09:18:00.308Z,4.77
2018-04-26T09:20:27.960Z,4.40
2018-04-26T09:22:55.646Z,4.93
2018-04-26T09:25:24.634Z,4.50
2018-04-26T09:27:53.010Z,4.27
2018-04-26T09:30:21.459Z,4.60
2018-04-26T09:32:49.735Z,5.03
2018-04-26T09:35:18.151Z,5.30
2018-04-26T09:37:45.859Z,4.77
2018-04-26T09:40:13.474Z,5.03
2018-04-26T09:42:41.960Z,4.67
2018-04-26T09:45:10.347Z,4.80
2018-04-26T09:47:38.027Z,4.90
2018-04-26T09:50:05.783Z,5.17
2018-04-26T09:52:33.402Z,4.73
2018-04-26T09:55:01.066Z,5.07
2018-04-26T09:57:29.504Z,5.17
2018-04-26T09:59:57.126Z,5.67
2018-04-26T10:02:25.548Z,5.57
2018-04-26T10:04:55.082Z,5.70
2018-04-26T10:07:22.737Z,5.73
2018-04-26T10:09:50.354Z,6.00
2018-04-26T10:12:18.023Z,6.10
2018-04-26T10:14:46.451Z,5.20
2018-04-26T10:17:15.104Z,6.27
2018-04-26T10:19:42.718Z,5.93
2018-04-26T10:22:11.149Z,6.00
2018-04-26T10:24:38.862Z,6.40
2018-04-26T10:27:09.588Z,6.20
2018-04-26T10:29:38.068Z,6.70
2018-04-26T10:32:05.788Z,6.27
2018-04-26T10:34:33.405Z,6.20
2018-04-26T10:37:01.871Z,6.23
2018-04-26T10:39:30.292Z,6.30
2018-04-26T10:41:57.971Z,6.00
2018-04-26T10:44:25.713Z,6.07
2018-04-26T10:46:53.322Z,5.93
2018-04-26T10:49:20.973Z,5.90
2018-04-26T10:51:48.647Z,6.50
2018-04-26T10:54:16.295Z,6.90
2018-04-26T10:56:43.950Z,6.00
2018-04-26T10:59:12.370Z,6.07
2018-04-26T11:01:40.816Z,6.30
2018-04-26T11:04:08.487Z,6.27
2018-04-26T11:06:36.939Z,5.90
2018-04-26T11:09:04.792Z,6.17
2018-04-26T11:11:33.294Z,6.17
2018-04-26T11:14:01.644Z,5.93
2018-04-26T11:16:29.270Z,6.20
2018-04-26T11:18:56.947Z,5.53
2018-04-26T11:21:25.378Z,5.43
2018-04-26T11:23:52.989Z,5.53
2018-04-26T11:26:21.423Z,5.77
2018-04-26T11:28:49.091Z,5.43
2018-04-26T11:31:16.811Z,4.97
2018-04-26T11:33:44.486Z,4.37
2018-04-26T11:36:12.101Z,5.23
2018-04-26T11:38:40.615Z,5.30
2018-04-26T11:41:08.234Z,4.97
2018-04-26T11:43:35.903Z,4.73
2018-04-26T11:46:03.535Z,5.13
2018-04-26T11:48:31.200Z,4.80
2018-04-26T11:50:58.804Z,4.07
2018-04-26T11:53:26.440Z,4.47
2018-04-26T11:55:54.122Z,5.07
2018-04-26T11:58:22.567Z,4.33
2018-04-26T12:00:50.240Z,4.30
2018-04-26T12:03:17.884Z,3.57
2018-04-26T12:05:45.547Z,4.00
2018-04-26T12:08:13.446Z,3.70
2018-04-26T12:10:41.895Z,3.53
2018-04-26T12:13:09.620Z,2.30
2018-04-26T12:15:37.250Z,2.23
2018-04-26T12:18:04.903Z,2.03
2018-04-26T12:20:32.516Z,1.90
2018-04-26T12:23:00.363Z,1.80
2018-04-26T12:25:28.049Z,1.70
2018-04-26T12:27:56.591Z,1.90
2018-04-26T12:30:24.348Z,1.60
2018-04-26T12:32:52.292Z,1.57
2018-04-26T12:35:19.980Z,1.77
2018-04-26T12:37:49.139Z,1.80
2018-04-26T12:40:17.039Z,2.10
2018-04-26T12:42:44.726Z,1.63
2018-04-26T12:45:12.883Z,1.57
2018-04-26T12:47:41.312Z,2.30
2018-04-26T12:50:08.994Z,2.17
2018-04-26T12:52:36.610Z,1.20
2018-04-26T12:55:04.346Z,1.40
2018-04-26T12:57:31.973Z,2.30
2018-04-26T12:59:59.660Z,2.53
2018-04-26T13:02:28.941Z,2.20
2018-04-26T13:04:57.439Z,2.17
2018-04-26T13:07:25.069Z,1.90
2018-04-26T13:09:52.885Z,2.13
2018-04-26T13:12:21.380Z,1.80
2018-04-26T13:14:49.781Z,1.70
2018-04-26T13:17:17.429Z,1.90
2018-04-26T13:19:45.024Z,1.70
2018-04-26T13:22:12.678Z,1.93
2018-04-26T13:24:40.317Z,2.10
2018-04-26T13:27:07.967Z,2.33
2018-04-26T13:29:35.694Z,2.30
2018-04-26T13:32:04.132Z,1.90
2018-04-26T13:34:33.443Z,1.60
2018-04-26T13:37:02.460Z,1.60
2018-04-26T13:39:30.057Z,1.40
2018-04-26T13:41:58.700Z,1.67
2018-04-26T13:44:26.252Z,1.30
2018-04-26T13:46:53.884Z,1.93
2018-04-26T13:49:21.512Z,1.70
2018-04-26T13:51:49.908Z,1.60
2018-04-26T13:54:18.380Z,1.60
2018-04-26T13:56:46.788Z,1.70
2018-04-26T13:59:14.388Z,1.50
2018-04-26T14:01:42.191Z,1.57
2018-04-26T14:04:09.788Z,1.70
2018-04-26T14:06:37.489Z,1.50
2018-04-26T14:09:05.213Z,1.33
2018-04-26T14:11:33.018Z,1.67
2018-04-26T14:14:00.655Z,1.80
2018-04-26T14:16:29.018Z,1.70
2018-04-26T14:18:56.668Z,2.40
2018-04-26T14:21:24.358Z,2.20
2018-04-26T14:23:51.944Z,2.10
2018-04-26T14:26:19.613Z,2.00
2018-04-26T14:28:47.965Z,1.83
2018-04-26T14:31:15.613Z,1.77
2018-04-26T14:33:43.197Z,1.70
2018-04-26T14:36:10.828Z,3.13
2018-04-26T14:38:38.470Z,3.50
2018-04-26T14:41:06.108Z,10.00
2018-04-26T14:43:35.060Z,4.23
2018-04-26T14:46:02.700Z,8.47
2018-04-26T14:48:30.341Z,6.40
2018-04-26T14:50:57.956Z,2.80
2018-04-26T14:53:25.588Z,1.00
2018-04-26T14:55:53.208Z,2.60
2018-04-26T14:58:21.601Z,1.73
2018-04-26T15:00:49.256Z,1.00
2018-04-26T15:03:16.895Z,0.90
2018-04-26T15:05:45.266Z,0.93
2018-04-26T15:08:12.971Z,0.80
2018-04-26T15:10:40.959Z,1.70
2018-04-26T15:13:09.693Z,1.43
2018-04-26T15:15:38.108Z,1.30
2018-04-26T15:18:05.732Z,1.30
2018-04-26T15:20:34.140Z,1.53
2018-04-26T15:23:01.846Z,1.10
2018-04-26T15:25:29.498Z,1.30
2018-04-26T15:27:57.084Z,4.40
2018-04-26T15:30:24.681Z,5.87
2018-04-26T15:32:52.309Z,2.90
2018-04-26T15:35:20.525Z,4.20
2018-04-26T15:37:48.112Z,1.80
2018-04-26T15:40:16.497Z,1.70
2018-04-26T15:42:44.136Z,1.30
2018-04-26T15:45:11.777Z,1.20
2018-04-26T15:47:39.416Z,1.10
2018-04-26T15:50:08.133Z,1.40
2018-04-26T15:52:54.155Z,1.50
2018-04-26T15:55:33.624Z,1.40
2018-04-26T16:01:36.394Z,2.00
2018-04-26T16:04:16.522Z,1.67
2018-04-26T16:10:03.829Z,1.73
2018-04-26T16:12:49.029Z,1.90
2018-04-26T16:15:32.545Z,1.40
2018-04-26T16:18:19.034Z,1.50
2018-04-26T16:21:05.736Z,1.40
2018-04-26T16:24:01.547Z,3.77
2018-04-26T16:26:42.377Z,1.40
2018-04-26T16:29:29.015Z,1.20
2018-04-26T16:32:14.612Z,1.30
2018-04-26T16:34:55.002Z,3.00
2018-04-26T16:37:41.130Z,1.90
2018-04-26T16:40:08.840Z,1.30
2018-04-26T16:42:37.283Z,1.67
2018-04-26T16:45:05.054Z,1.50
2018-04-26T16:47:32.712Z,1.70
2018-04-26T16:50:00.425Z,1.60
2018-04-26T16:52:28.847Z,1.80
2018-04-26T16:54:56.522Z,5.00
2018-04-26T16:57:24.237Z,4.10
2018-04-26T16:59:51.959Z,7.33
2018-04-26T17:02:19.592Z,8.33
2018-04-26T17:04:47.366Z,8.17
2018-04-26T17:07:14.997Z,2.90
2018-04-26T17:09:43.415Z,2.23
2018-04-26T17:12:11.418Z,1.50
2018-04-26T17:14:39.857Z,0.97
2018-04-26T17:17:08.324Z,3.60
2018-04-26T17:19:36.132Z,4.30
2018-04-26T17:22:03.774Z,2.40
2018-04-26T17:24:31.446Z,2.03
2018-04-26T17:26:59.085Z,1.83
2018-04-26T17:29:26.794Z,1.40
2018-04-26T17:31:54.553Z,1.60
2018-04-26T17:34:22.933Z,5.47
2018-04-26T17:36:51.398Z,2.70
2018-04-26T17:39:19.042Z,1.80
2018-04-26T17:41:46.746Z,1.70
2018-04-26T17:44:15.178Z,1.60
2018-04-26T17:46:42.861Z,1.63
2018-04-26T17:49:10.524Z,2.30
2018-04-26T17:51:38.194Z,4.50
2018-04-26T17:54:05.857Z,3.33
2018-04-26T17:56:33.582Z,2.73
2018-04-26T17:59:01.322Z,2.33
2018-04-26T18:01:29.973Z,1.33
2018-04-26T18:03:58.422Z,1.47
2018-04-26T18:06:26.014Z,3.00
2018-04-26T18:08:53.669Z,1.90
2018-04-26T18:11:21.338Z,2.03
2018-04-26T18:13:49.725Z,1.90
2018-04-26T18:16:20.595Z,2.47
2018-04-26T18:18:50.663Z,2.37
2018-04-26T18:21:18.613Z,2.10
2018-04-26T18:23:46.428Z,3.03
2018-04-26T18:26:14.094Z,3.37
2018-04-26T18:28:41.793Z,2.83
2018-04-26T18:31:09.394Z,3.03
2018-04-26T18:33:38.070Z,9.13
2018-04-26T18:36:06.569Z,8.77
2018-04-26T18:38:35.134Z,4.40
2018-04-26T18:41:02.747Z,5.60
2018-04-26T18:43:30.362Z,4.60
2018-04-26T18:45:58.843Z,2.93
2018-04-26T18:48:26.458Z,2.20
2018-04-26T18:50:54.134Z,2.50
2018-04-26T18:53:22.038Z,4.80
2018-04-26T18:55:49.709Z,4.17
2018-04-26T18:58:17.561Z,3.50
2018-04-26T19:00:45.982Z,3.00
2018-04-26T19:03:14.257Z,2.80
2018-04-26T19:05:41.962Z,2.40
2018-04-26T19:08:09.639Z,2.53
2018-04-26T19:10:37.403Z,2.63
2018-04-26T19:13:05.056Z,2.27
2018-04-26T19:15:32.705Z,3.27
2018-04-26T19:18:01.371Z,4.57
2018-04-26T19:20:29.002Z,4.27
2018-04-26T19:22:56.739Z,4.60
2018-04-26T19:25:24.479Z,4.77
2018-04-26T19:27:52.142Z,3.60
2018-04-26T19:30:19.820Z,3.13
2018-04-26T19:32:47.484Z,3.03
2018-04-26T19:35:15.111Z,3.60
2018-04-26T19:37:42.786Z,4.20
2018-04-26T19:40:10.479Z,3.80
2018-04-26T19:42:39.469Z,3.50
2018-04-26T19:45:13.364Z,4.03
2018-04-26T19:47:40.973Z,3.80
2018-04-26T19:50:09.608Z,3.90
2018-04-26T19:52:37.340Z,3.60
2018-04-26T19:55:04.976Z,4.00
2018-04-26T19:57:32.633Z,4.37
2018-04-26T20:00:00.381Z,4.53
2018-04-26T20:02:28.797Z,3.87
2018-04-26T20:04:56.427Z,3.80
2018-04-26T20:07:24.803Z,4.10
2018-04-26T20:09:52.584Z,3.83
2018-04-26T20:12:20.725Z,3.63
2018-04-26T20:14:48.349Z,3.80
2018-04-26T20:17:15.995Z,3.90
2018-04-26T20:19:43.659Z,3.57
2018-04-26T20:22:11.659Z,3.50
2018-04-26T20:24:39.406Z,3.63
2018-04-26T20:27:07.007Z,3.90
2018-04-26T20:29:34.663Z,3.90
2018-04-26T20:32:02.320Z,3.93
2018-04-26T20:34:29.920Z,3.77
2018-04-26T20:36:57.642Z,4.53
2018-04-26T20:39:25.302Z,4.20
2018-04-26T20:41:54.843Z,3.50
2018-04-26T20:44:34.261Z,4.20
2018-04-26T20:47:02.721Z,3.70
2018-04-26T20:49:30.378Z,4.50
2018-04-26T20:51:58.023Z,3.87
2018-04-26T20:54:25.693Z,4.40
2018-04-26T20:56:53.326Z,5.00
2018-04-26T20:59:21.013Z,5.13
2018-04-26T21:01:48.702Z,4.63
2018-04-26T21:04:16.289Z,4.10
2018-04-26T21:06:44.790Z,4.27
2018-04-26T21:09:12.410Z,4.40
2018-04-26T21:11:40.041Z,4.20
2018-04-26T21:14:07.653Z,5.07
2018-04-26T21:16:36.055Z,5.40
2018-04-26T21:19:03.685Z,5.90
2018-04-26T21:21:32.085Z,5.80
2018-04-26T21:23:59.684Z,6.57
2018-04-26T21:26:27.281Z,6.73
2018-04-26T21:28:55.739Z,6.07
2018-04-26T21:31:23.305Z,5.90
2018-04-26T21:33:50.941Z,6.80
2018-04-26T21:36:18.539Z,6.67
2018-04-26T21:38:46.937Z,6.13
2018-04-26T21:41:15.333Z,5.63
2018-04-26T21:43:43.969Z,6.77
2018-04-26T21:46:11.609Z,5.80
2018-04-26T21:48:39.201Z,6.60
2018-04-26T21:51:13.289Z,7.30
2018-04-26T21:53:46.741Z,7.57
2018-04-26T21:56:19.945Z,7.90
2018-04-26T21:58:53.193Z,7.00
2018-04-26T22:01:26.308Z,6.93
2018-04-26T22:04:11.624Z,7.03
2018-04-26T22:06:39.207Z,6.37
2018-04-26T22:09:06.839Z,6.83
2018-04-26T22:11:34.464Z,6.33
2018-04-26T22:14:02.821Z,5.83
2018-04-26T22:16:30.441Z,5.50
2018-04-26T22:18:58.033Z,5.97
2018-04-26T22:21:25.667Z,5.53
2018-04-26T22:23:53.977Z,6.10
2018-04-26T22:26:21.609Z,5.80
2018-04-26T22:28:49.198Z,5.57
2018-04-26T22:31:16.853Z,4.60
2018-04-26T22:33:44.454Z,4.90
2018-04-26T22:36:12.082Z,4.20
2018-04-26T22:38:39.721Z,4.13
2018-04-26T22:41:07.312Z,4.17
2018-04-26T22:43:35.726Z,4.17
2018-04-26T22:46:03.376Z,4.57
2018-04-26T22:48:31.013Z,3.83
2018-04-26T22:50:59.376Z,3.77
2018-04-26T22:53:27.017Z,4.20
2018-04-26T22:55:55.414Z,4.23
2018-04-26T22:58:23.044Z,4.20
2018-04-26T23:00:50.676Z,3.80
2018-04-26T23:03:18.295Z,4.20
2018-04-26T23:05:45.928Z,3.57
2018-04-26T23:08:13.521Z,4.07
2018-04-26T23:10:41.149Z,3.53
2018-04-26T23:13:08.786Z,4.07
2018-04-26T23:15:36.377Z,3.90
2018-04-26T23:18:04.017Z,3.90
2018-04-26T23:20:31.612Z,3.77
2018-04-26T23:22:59.246Z,3.53
2018-04-26T23:25:26.832Z,3.80
2018-04-26T23:27:54.474Z,3.97
2018-04-26T23:30:22.060Z,3.60
2018-04-26T23:32:49.697Z,3.63
2018-04-26T23:35:17.285Z,3.80
2018-04-26T23:37:44.916Z,3.67
2018-04-26T23:40:12.544Z,3.90
2018-04-26T23:42:40.131Z,3.60
2018-04-26T23:45:07.756Z,3.53
2018-04-26T23:47:36.114Z,4.17
2018-04-26T23:50:03.733Z,4.80
2018-04-26T23:52:31.401Z,4.60
2018-04-26T23:54:58.989Z,4.37
2018-04-26T23:57:26.608Z,4.73
2018-04-26T23:59:54.196Z,5.00
